createdAt,value
2023-02-23T00:00:34.184Z,46.20
2023-02-23T00:01:37.910Z,46.20
2023-02-23T00:02:40.469Z,46.20
2023-02-23T00:03:43.970Z,46.20
2023-02-23T00:04:48.209Z,46.20
2023-02-23T00:05:50.690Z,46.20
2023-02-23T00:06:53.693Z,46.10
2023-02-23T00:07:56.858Z,46.10
2023-02-23T00:09:01.266Z,46.10
2023-02-23T00:10:04.100Z,46.60
2023-02-23T00:11:08.651Z,46.10
2023-02-23T00:12:10.990Z,46.20
2023-02-23T00:13:13.587Z,46.20
2023-02-23T00:14:16.086Z,46.20
2023-02-23T00:15:18.502Z,46.20
2023-02-23T00:16:23.699Z,46.30
2023-02-23T00:17:26.509Z,46.20
2023-02-23T00:18:30.183Z,46.20
2023-02-23T00:19:33.608Z,46.20
2023-02-23T00:20:36.127Z,46.30
2023-02-23T00:21:39.024Z,46.30
2023-02-23T00:22:42.129Z,46.40
2023-02-23T00:23:53.264Z,46.40
2023-02-23T00:24:57.426Z,46.40
2023-02-23T00:25:59.854Z,46.30
2023-02-23T00:27:06.152Z,46.30
2023-02-23T00:28:10.095Z,46.50
2023-02-23T00:29:17.760Z,46.50
2023-02-23T00:30:20.699Z,46.50
2023-02-23T00:31:26.914Z,46.50
2023-02-23T00:32:29.533Z,46.40
2023-02-23T00:33:32.054Z,46.30
2023-02-23T00:34:36.601Z,46.30
2023-02-23T00:35:39.899Z,46.40
2023-02-23T00:36:43.221Z,46.30
2023-02-23T00:37:48.916Z,46.30
2023-02-23T00:39:00.237Z,46.40
2023-02-23T00:40:03.885Z,46.40
2023-02-23T00:41:14.446Z,46.40
2023-02-23T00:42:17.272Z,46.50
2023-02-23T00:43:20.055Z,46.40
2023-02-23T00:44:24.740Z,46.50
2023-02-23T00:45:27.673Z,46.50
2023-02-23T00:46:30.910Z,46.60
2023-02-23T00:47:33.462Z,46.60
2023-02-23T00:48:36.207Z,46.50
2023-02-23T00:49:38.744Z,46.50
2023-02-23T00:50:41.818Z,46.50
2023-02-23T00:51:44.417Z,46.50
2023-02-23T00:52:46.992Z,46.50
2023-02-23T00:53:49.505Z,46.50
2023-02-23T00:54:51.852Z,46.50
2023-02-23T00:55:56.235Z,46.40
2023-02-23T00:56:58.637Z,46.50
2023-02-23T00:58:04.043Z,46.40
2023-02-23T00:59:06.882Z,46.40
2023-02-23T01:00:18.810Z,46.40
2023-02-23T01:01:21.575Z,46.50
2023-02-23T01:02:30.671Z,46.50
2023-02-23T01:03:33.449Z,46.40
2023-02-23T01:04:35.873Z,46.40
2023-02-23T01:05:38.200Z,46.40
2023-02-23T01:06:41.767Z,46.50
2023-02-23T01:07:47.344Z,46.50
2023-02-23T01:08:56.630Z,46.50
2023-02-23T01:09:59.329Z,46.40
2023-02-23T01:11:10.440Z,46.40
2023-02-23T01:12:13.143Z,46.40
2023-02-23T01:13:21.037Z,46.50
2023-02-23T01:14:24.055Z,46.50
2023-02-23T01:15:27.898Z,46.40
2023-02-23T01:16:33.103Z,46.50
2023-02-23T01:17:35.728Z,46.40
2023-02-23T01:18:39.787Z,46.40
2023-02-23T01:19:42.141Z,46.40
2023-02-23T01:20:45.823Z,46.80
2023-02-23T01:21:48.147Z,47.00
2023-02-23T01:22:54.287Z,46.80
2023-02-23T01:23:57.486Z,46.70
2023-02-23T01:24:59.820Z,46.60
2023-02-23T01:26:02.211Z,46.60
2023-02-23T01:27:06.493Z,46.60
2023-02-23T01:28:13.096Z,46.70
2023-02-23T01:29:18.153Z,46.60
2023-02-23T01:30:21.372Z,46.60
2023-02-23T01:31:25.148Z,46.70
2023-02-23T01:32:27.661Z,46.60
2023-02-23T01:33:31.168Z,46.90
2023-02-23T01:34:33.984Z,46.80
2023-02-23T01:35:36.674Z,46.70
2023-02-23T01:36:40.955Z,46.40
2023-02-23T01:37:43.996Z,46.80
2023-02-23T01:38:46.632Z,47.50
2023-02-23T01:39:49.034Z,47.40
2023-02-23T01:40:51.443Z,47.30
2023-02-23T01:41:55.264Z,47.30
2023-02-23T01:43:07.239Z,47.20
2023-02-23T01:44:13.257Z,47.20
2023-02-23T01:45:24.212Z,47.10
2023-02-23T01:46:26.914Z,47.00
2023-02-23T01:47:30.012Z,47.00
2023-02-23T01:48:39.010Z,47.10
2023-02-23T01:49:41.863Z,47.10
2023-02-23T01:50:56.027Z,47.10
2023-02-23T01:52:11.307Z,47.10
2023-02-23T01:53:14.556Z,47.00
2023-02-23T01:54:21.397Z,47.00
2023-02-23T01:55:26.864Z,47.00
2023-02-23T01:56:43.297Z,47.00
2023-02-23T01:57:46.895Z,47.00
2023-02-23T01:58:52.842Z,47.00
2023-02-23T01:59:55.542Z,47.10
2023-02-23T02:01:03.229Z,47.00
2023-02-23T02:02:05.814Z,47.10
2023-02-23T02:03:14.046Z,47.00
2023-02-23T02:04:19.471Z,47.00
2023-02-23T02:05:21.938Z,47.10
2023-02-23T02:06:29.890Z,47.20
2023-02-23T02:07:35.258Z,47.20
2023-02-23T02:08:44.882Z,47.20
2023-02-23T02:10:06.361Z,47.20
2023-02-23T02:11:25.785Z,47.10
2023-02-23T02:12:28.264Z,47.00
2023-02-23T02:13:32.610Z,47.00
2023-02-23T02:14:36.375Z,47.10
2023-02-23T02:15:53.724Z,47.00
2023-02-23T02:17:10.592Z,47.00
2023-02-23T02:19:05.963Z,47.00
2023-02-23T02:20:37.894Z,47.10
2023-02-23T02:22:08.744Z,47.10
2023-02-23T02:23:57.834Z,47.10
2023-02-23T02:25:26.647Z,47.00
2023-02-23T02:26:44.378Z,47.00
2023-02-23T02:28:13.038Z,47.00
2023-02-23T02:29:50.621Z,47.10
2023-02-23T02:31:15.708Z,47.00
2023-02-23T02:32:35.292Z,47.00
2023-02-23T02:33:48.298Z,47.00
2023-02-23T02:35:21.271Z,47.10
2023-02-23T02:36:42.371Z,47.00
2023-02-23T02:38:01.764Z,47.00
2023-02-23T02:39:34.970Z,47.10
2023-02-23T02:40:53.403Z,47.10
2023-02-23T02:42:25.117Z,47.20
2023-02-23T02:43:47.854Z,47.10
2023-02-23T02:44:58.435Z,47.10
2023-02-23T02:46:17.443Z,47.10
2023-02-23T02:47:29.232Z,47.10
2023-02-23T02:48:59.762Z,47.10
2023-02-23T02:50:09.949Z,47.10
2023-02-23T02:51:26.004Z,47.20
2023-02-23T02:52:43.216Z,47.10
2023-02-23T02:53:58.173Z,47.20
2023-02-23T02:55:16.042Z,47.20
2023-02-23T02:56:22.150Z,47.20
2023-02-23T02:57:27.507Z,47.10
2023-02-23T02:58:30.030Z,47.20
2023-02-23T03:00:00.356Z,47.10
2023-02-23T03:01:31.640Z,47.10
2023-02-23T03:02:55.536Z,47.60
2023-02-23T03:04:20.970Z,47.10
2023-02-23T03:05:56.179Z,47.20
2023-02-23T03:07:29.073Z,47.20
2023-02-23T03:08:59.240Z,47.20
2023-02-23T03:10:42.138Z,47.30
2023-02-23T03:12:22.829Z,47.30
2023-02-23T03:13:49.869Z,47.30
2023-02-23T03:15:10.898Z,47.30
2023-02-23T03:16:56.241Z,47.30
2023-02-23T03:18:49.576Z,47.20
2023-02-23T03:20:22.338Z,47.30
2023-02-23T03:21:49.294Z,47.30
2023-02-23T03:23:23.734Z,47.30
2023-02-23T03:25:18.403Z,47.20
2023-02-23T03:27:05.766Z,47.30
2023-02-23T03:28:36.681Z,47.30
2023-02-23T03:30:15.647Z,47.70
2023-02-23T03:31:46.230Z,47.30
2023-02-23T03:33:22.292Z,47.30
2023-02-23T03:34:49.570Z,47.30
2023-02-23T03:36:32.513Z,47.30
2023-02-23T03:38:03.247Z,47.30
2023-02-23T03:39:46.833Z,47.40
2023-02-23T03:41:10.481Z,47.30
2023-02-23T03:42:38.617Z,47.30
2023-02-23T03:44:08.954Z,47.30
2023-02-23T03:45:35.298Z,47.40
2023-02-23T03:46:58.805Z,47.40
2023-02-23T03:48:23.503Z,47.40
2023-02-23T03:49:50.612Z,47.40
2023-02-23T03:51:15.011Z,47.50
2023-02-23T03:52:41.517Z,47.40
2023-02-23T03:54:26.408Z,47.40
2023-02-23T03:55:52.510Z,47.40
2023-02-23T03:57:16.646Z,47.30
2023-02-23T03:58:46.298Z,47.30
2023-02-23T04:00:15.874Z,47.40
2023-02-23T04:01:39.171Z,47.40
2023-02-23T04:03:03.000Z,47.40
2023-02-23T04:04:26.568Z,47.50
2023-02-23T04:05:49.085Z,47.50
2023-02-23T04:07:11.772Z,47.40
2023-02-23T04:08:37.993Z,47.50
2023-02-23T04:09:59.185Z,47.50
2023-02-23T04:11:40.031Z,47.40
2023-02-23T04:13:15.496Z,47.40
2023-02-23T04:14:30.648Z,47.40
2023-02-23T04:15:59.387Z,47.50
2023-02-23T04:17:04.168Z,47.50
2023-02-23T04:18:11.316Z,47.50
2023-02-23T04:19:14.352Z,47.50
2023-02-23T04:20:16.960Z,47.50
2023-02-23T04:21:19.664Z,47.40
2023-02-23T04:22:23.643Z,47.30
2023-02-23T04:23:27.053Z,47.40
2023-02-23T04:24:29.512Z,47.40
2023-02-23T04:25:31.942Z,47.40
2023-02-23T04:26:34.378Z,47.30
2023-02-23T04:27:36.917Z,47.30
2023-02-23T04:28:39.307Z,47.30
2023-02-23T04:29:42.318Z,47.30
2023-02-23T04:30:45.006Z,47.40
2023-02-23T04:31:48.670Z,47.40
2023-02-23T04:32:52.246Z,47.40
2023-02-23T04:33:54.591Z,47.30
2023-02-23T04:34:56.918Z,47.30
2023-02-23T04:35:59.419Z,47.30
2023-02-23T04:37:01.761Z,47.30
2023-02-23T04:38:04.347Z,47.30
2023-02-23T04:39:06.752Z,47.30
2023-02-23T04:40:10.158Z,47.30
2023-02-23T04:41:12.859Z,47.30
2023-02-23T04:42:16.201Z,47.20
2023-02-23T04:43:18.703Z,47.70
2023-02-23T04:44:21.096Z,47.30
2023-02-23T04:45:24.687Z,47.30
2023-02-23T04:46:27.273Z,47.30
2023-02-23T04:47:30.039Z,47.40
2023-02-23T04:48:32.475Z,47.40
2023-02-23T04:49:34.975Z,47.40
2023-02-23T04:50:39.813Z,47.30
2023-02-23T04:51:42.489Z,47.30
2023-02-23T04:52:44.986Z,47.40
2023-02-23T04:53:47.318Z,47.30
2023-02-23T04:54:49.647Z,47.30
2023-02-23T04:55:52.070Z,47.30
2023-02-23T04:56:54.772Z,47.40
2023-02-23T04:58:00.733Z,47.30
2023-02-23T04:59:03.188Z,47.30
2023-02-23T05:00:06.307Z,47.30
2023-02-23T05:01:09.646Z,47.30
2023-02-23T05:02:12.135Z,47.30
2023-02-23T05:03:14.590Z,47.30
2023-02-23T05:04:18.177Z,47.30
2023-02-23T05:05:21.428Z,47.40
2023-02-23T05:06:25.375Z,47.30
2023-02-23T05:07:27.846Z,47.30
2023-02-23T05:08:30.220Z,47.30
2023-02-23T05:09:33.363Z,47.40
2023-02-23T05:10:35.884Z,47.40
2023-02-23T05:11:38.260Z,47.40
2023-02-23T05:12:40.680Z,47.40
2023-02-23T05:13:43.811Z,47.20
2023-02-23T05:14:46.428Z,47.30
2023-02-23T05:15:48.907Z,47.20
2023-02-23T05:16:51.287Z,47.30
2023-02-23T05:17:55.618Z,47.20
2023-02-23T05:18:58.243Z,47.20
2023-02-23T05:20:00.596Z,47.20
2023-02-23T05:21:07.875Z,47.30
2023-02-23T05:22:12.620Z,47.20
2023-02-23T05:23:14.932Z,47.30
2023-02-23T05:24:18.102Z,47.30
2023-02-23T05:25:20.477Z,47.30
2023-02-23T05:26:22.991Z,47.30
2023-02-23T05:27:26.708Z,47.30
2023-02-23T05:28:29.028Z,47.30
2023-02-23T05:29:31.350Z,47.30
2023-02-23T05:30:34.243Z,47.30
2023-02-23T05:31:36.756Z,47.30
2023-02-23T05:32:39.323Z,47.40
2023-02-23T05:33:45.804Z,47.30
2023-02-23T05:34:48.163Z,47.20
2023-02-23T05:35:50.563Z,47.20
2023-02-23T05:36:54.191Z,47.20
2023-02-23T05:37:56.527Z,47.30
2023-02-23T05:38:58.850Z,47.30
2023-02-23T05:40:01.218Z,47.20
2023-02-23T05:41:11.786Z,47.30
2023-02-23T05:42:14.176Z,47.40
2023-02-23T05:43:16.704Z,47.30
2023-02-23T05:44:19.282Z,48.10
2023-02-23T05:45:21.922Z,47.80
2023-02-23T05:46:26.353Z,47.30
2023-02-23T05:47:28.780Z,47.50
2023-02-23T05:48:31.131Z,47.10
2023-02-23T05:49:33.514Z,47.00
2023-02-23T05:50:36.079Z,47.30
2023-02-23T05:51:39.564Z,47.80
2023-02-23T05:52:42.003Z,48.10
2023-02-23T05:53:46.689Z,48.50
2023-02-23T05:54:49.237Z,49.00
2023-02-23T05:55:52.317Z,49.40
2023-02-23T05:56:54.729Z,49.00
2023-02-23T05:57:57.174Z,48.80
2023-02-23T05:58:59.767Z,48.90
2023-02-23T06:00:02.334Z,48.70
2023-02-23T06:01:06.897Z,49.30
2023-02-23T06:02:09.255Z,48.60
2023-02-23T06:03:11.698Z,48.30
2023-02-23T06:04:14.202Z,48.30
2023-02-23T06:05:16.837Z,48.20
2023-02-23T06:06:20.246Z,48.20
2023-02-23T06:07:22.598Z,48.10
2023-02-23T06:08:26.430Z,48.20
2023-02-23T06:09:28.870Z,48.20
2023-02-23T06:10:31.218Z,48.20
2023-02-23T06:11:33.580Z,48.20
2023-02-23T06:12:37.089Z,48.10
2023-02-23T06:13:40.272Z,48.30
2023-02-23T06:14:42.708Z,48.30
2023-02-23T06:15:45.290Z,48.20
2023-02-23T06:16:48.748Z,47.40
2023-02-23T06:17:51.166Z,46.60
2023-02-23T06:18:53.678Z,46.70
2023-02-23T06:19:56.388Z,47.20
2023-02-23T06:21:01.015Z,47.50
2023-02-23T06:22:03.758Z,47.80
2023-02-23T06:23:07.396Z,48.10
2023-02-23T06:24:10.288Z,48.40
2023-02-23T06:25:13.338Z,48.60
2023-02-23T06:26:15.893Z,48.80
2023-02-23T06:27:18.326Z,48.90
2023-02-23T06:28:20.648Z,48.70
2023-02-23T06:29:22.971Z,48.70
2023-02-23T06:30:25.339Z,48.80
2023-02-23T06:31:28.108Z,48.50
2023-02-23T06:32:30.595Z,48.40
2023-02-23T06:33:34.073Z,48.30
2023-02-23T06:34:36.508Z,48.20
2023-02-23T06:35:39.365Z,48.20
2023-02-23T06:36:41.705Z,48.40
2023-02-23T06:37:44.022Z,48.30
2023-02-23T06:38:47.186Z,48.40
2023-02-23T06:39:50.378Z,48.50
2023-02-23T06:40:52.737Z,48.50
2023-02-23T06:41:55.123Z,48.30
2023-02-23T06:42:57.658Z,48.40
2023-02-23T06:43:59.970Z,48.30
2023-02-23T06:45:04.150Z,47.90
2023-02-23T06:46:06.787Z,47.70
2023-02-23T06:47:09.637Z,47.90
2023-02-23T06:48:12.021Z,48.20
2023-02-23T06:49:16.587Z,48.40
2023-02-23T06:50:19.132Z,48.00
2023-02-23T06:51:21.730Z,47.70
2023-02-23T06:52:26.204Z,47.20
2023-02-23T06:53:30.376Z,47.80
2023-02-23T06:54:34.139Z,46.80
2023-02-23T06:55:36.494Z,47.00
2023-02-23T06:56:38.860Z,48.10
2023-02-23T06:57:41.616Z,48.20
2023-02-23T06:58:44.059Z,48.60
2023-02-23T06:59:46.412Z,49.10
2023-02-23T07:00:48.799Z,49.10
2023-02-23T07:01:51.267Z,49.10
2023-02-23T07:02:53.721Z,49.20
2023-02-23T07:03:56.184Z,49.20
2023-02-23T07:04:58.873Z,49.20
2023-02-23T07:06:01.239Z,49.10
2023-02-23T07:07:04.254Z,49.10
2023-02-23T07:08:07.045Z,49.10
2023-02-23T07:09:09.412Z,49.10
2023-02-23T07:10:12.077Z,49.10
2023-02-23T07:11:16.046Z,49.10
2023-02-23T07:12:18.598Z,49.00
2023-02-23T07:13:21.905Z,49.10
2023-02-23T07:14:26.979Z,49.00
2023-02-23T07:15:29.750Z,49.00
2023-02-23T07:16:32.245Z,48.50
2023-02-23T07:17:34.734Z,47.90
2023-02-23T07:18:37.130Z,47.70
2023-02-23T07:19:39.996Z,46.90
2023-02-23T07:20:42.499Z,47.00
2023-02-23T07:21:44.825Z,47.10
2023-02-23T07:22:47.857Z,47.30
2023-02-23T07:23:50.430Z,47.40
2023-02-23T07:24:52.813Z,47.60
2023-02-23T07:25:56.489Z,47.60
2023-02-23T07:26:58.967Z,47.60
2023-02-23T07:28:01.759Z,47.60
2023-02-23T07:29:04.289Z,48.20
2023-02-23T07:30:07.564Z,48.40
2023-02-23T07:31:09.991Z,49.10
2023-02-23T07:32:12.424Z,49.20
2023-02-23T07:33:14.845Z,49.20
2023-02-23T07:34:17.260Z,49.20
2023-02-23T07:35:20.295Z,49.20
2023-02-23T07:36:23.916Z,49.10
2023-02-23T07:37:26.365Z,48.30
2023-02-23T07:38:28.757Z,48.70
2023-02-23T07:39:31.423Z,48.50
2023-02-23T07:40:34.046Z,48.60
2023-02-23T07:41:36.355Z,48.60
2023-02-23T07:42:38.704Z,48.70
2023-02-23T07:43:41.294Z,48.60
2023-02-23T07:44:45.302Z,48.70
2023-02-23T07:45:47.725Z,48.60
2023-02-23T07:46:50.810Z,48.40
2023-02-23T07:47:53.194Z,48.30
2023-02-23T07:48:55.597Z,48.10
2023-02-23T07:50:00.606Z,47.90
2023-02-23T07:51:10.121Z,47.90
2023-02-23T07:52:12.629Z,48.00
2023-02-23T07:53:15.528Z,47.30
2023-02-23T07:54:17.931Z,47.40
2023-02-23T07:55:20.990Z,47.80
2023-02-23T07:56:23.419Z,47.70
2023-02-23T07:57:25.919Z,47.80
2023-02-23T07:58:28.376Z,47.70
2023-02-23T07:59:32.037Z,47.30
2023-02-23T08:00:36.472Z,47.70
2023-02-23T08:01:38.919Z,47.30
2023-02-23T08:02:41.495Z,47.40
2023-02-23T08:03:49.549Z,47.30
2023-02-23T08:04:54.140Z,47.40
2023-02-23T08:05:57.790Z,47.60
2023-02-23T08:07:00.342Z,47.60
2023-02-23T08:08:02.719Z,47.50
2023-02-23T08:09:06.017Z,47.40
2023-02-23T08:10:09.012Z,46.90
2023-02-23T08:11:11.879Z,47.40
2023-02-23T08:12:15.754Z,47.40
2023-02-23T08:13:18.142Z,47.50
2023-02-23T08:14:23.527Z,47.70
2023-02-23T08:15:25.919Z,47.50
2023-02-23T08:16:29.735Z,47.40
2023-02-23T08:17:32.136Z,47.60
2023-02-23T08:18:35.017Z,47.30
2023-02-23T08:19:37.694Z,47.10
2023-02-23T08:20:40.050Z,47.20
2023-02-23T08:21:43.397Z,47.30
2023-02-23T08:22:49.774Z,47.30
2023-02-23T08:23:52.413Z,47.30
2023-02-23T08:24:54.787Z,47.30
2023-02-23T08:25:57.929Z,47.40
2023-02-23T08:27:02.032Z,47.30
2023-02-23T08:28:06.709Z,47.30
2023-02-23T08:29:09.353Z,47.30
2023-02-23T08:30:14.196Z,47.30
2023-02-23T08:31:19.489Z,47.20
2023-02-23T08:32:22.573Z,47.30
2023-02-23T08:33:25.306Z,47.70
2023-02-23T08:34:27.717Z,47.90
2023-02-23T08:35:31.087Z,47.90
2023-02-23T08:36:33.464Z,47.90
2023-02-23T08:37:36.083Z,48.00
2023-02-23T08:38:38.490Z,48.00
2023-02-23T08:39:43.344Z,48.10
2023-02-23T08:40:46.259Z,48.20
2023-02-23T08:41:48.699Z,47.90
2023-02-23T08:42:54.254Z,47.60
2023-02-23T08:43:58.863Z,47.60
2023-02-23T08:45:01.568Z,47.90
2023-02-23T08:46:04.035Z,47.40
2023-02-23T08:47:06.388Z,47.40
2023-02-23T08:48:08.994Z,47.30
2023-02-23T08:49:11.804Z,47.30
2023-02-23T08:50:14.648Z,47.30
2023-02-23T08:51:17.247Z,47.30
2023-02-23T08:52:20.344Z,47.40
2023-02-23T08:53:23.073Z,47.30
2023-02-23T08:54:25.527Z,47.30
2023-02-23T08:55:27.923Z,47.30
2023-02-23T08:56:31.638Z,47.30
2023-02-23T08:57:34.902Z,47.40
2023-02-23T08:58:37.639Z,47.40
2023-02-23T08:59:41.201Z,47.40
2023-02-23T09:00:44.747Z,47.30
2023-02-23T09:01:47.248Z,47.20
2023-02-23T09:02:49.776Z,47.50
2023-02-23T09:03:52.240Z,47.30
2023-02-23T09:04:55.256Z,47.30
2023-02-23T09:06:09.152Z,47.40
2023-02-23T09:07:17.394Z,47.40
2023-02-23T09:08:20.449Z,47.30
2023-02-23T09:09:22.743Z,47.30
2023-02-23T09:10:27.732Z,47.70
2023-02-23T09:11:30.066Z,47.10
2023-02-23T09:12:32.467Z,46.80
2023-02-23T09:13:35.220Z,46.80
2023-02-23T09:14:37.704Z,47.30
2023-02-23T09:15:41.237Z,47.60
2023-02-23T09:16:45.004Z,47.70
2023-02-23T09:17:48.053Z,48.00
2023-02-23T09:18:50.488Z,48.20
2023-02-23T09:19:54.035Z,48.00
2023-02-23T09:20:56.778Z,48.00
2023-02-23T09:21:59.097Z,48.30
2023-02-23T09:23:01.745Z,48.10
2023-02-23T09:24:04.356Z,48.20
2023-02-23T09:25:08.467Z,48.60
2023-02-23T09:26:11.004Z,48.60
2023-02-23T09:27:14.186Z,48.20
2023-02-23T09:28:18.776Z,48.10
2023-02-23T09:29:24.864Z,48.00
2023-02-23T09:30:28.149Z,47.40
2023-02-23T09:31:31.606Z,47.40
2023-02-23T09:32:34.403Z,47.30
2023-02-23T09:33:37.309Z,47.20
2023-02-23T09:34:39.648Z,47.10
2023-02-23T09:35:42.065Z,47.10
2023-02-23T09:36:44.716Z,47.60
2023-02-23T09:37:49.749Z,47.10
2023-02-23T09:38:57.241Z,47.10
2023-02-23T09:39:59.825Z,47.10
2023-02-23T09:41:02.313Z,47.20
2023-02-23T09:42:45.504Z,47.10
2023-02-23T09:43:55.950Z,47.40
2023-02-23T09:45:07.892Z,47.30
2023-02-23T09:46:38.389Z,47.10
2023-02-23T09:47:45.875Z,47.80
2023-02-23T09:48:48.951Z,47.40
2023-02-23T09:49:53.381Z,47.50
2023-02-23T09:50:57.861Z,47.50
2023-02-23T09:52:03.960Z,47.60
2023-02-23T09:53:35.826Z,47.60
2023-02-23T09:54:38.223Z,47.50
2023-02-23T09:55:42.829Z,47.50
2023-02-23T09:56:49.654Z,47.60
2023-02-23T09:57:52.392Z,48.10
2023-02-23T09:58:54.870Z,47.70
2023-02-23T09:59:57.362Z,47.60
2023-02-23T10:01:10.175Z,47.60
2023-02-23T10:02:30.862Z,47.10
2023-02-23T10:03:48.435Z,47.60
2023-02-23T10:04:58.365Z,47.30
2023-02-23T10:06:05.767Z,47.20
2023-02-23T10:07:18.852Z,47.00
2023-02-23T10:08:55.703Z,47.40
2023-02-23T10:10:16.006Z,47.30
2023-02-23T10:11:27.002Z,47.40
2023-02-23T10:13:09.444Z,47.10
2023-02-23T10:14:20.638Z,47.00
2023-02-23T10:15:42.769Z,47.00
2023-02-23T10:17:06.333Z,47.10
2023-02-23T10:18:17.213Z,47.40
2023-02-23T10:20:00.828Z,47.40
2023-02-23T10:21:08.372Z,47.70
2023-02-23T10:22:12.329Z,47.70
2023-02-23T10:23:21.727Z,47.60
2023-02-23T10:24:26.723Z,47.70
2023-02-23T10:25:34.046Z,48.00
2023-02-23T10:26:47.257Z,48.00
2023-02-23T10:27:50.364Z,47.90
2023-02-23T10:28:56.737Z,48.00
2023-02-23T10:30:02.723Z,47.90
2023-02-23T10:31:27.592Z,47.80
2023-02-23T10:32:40.018Z,47.70
2023-02-23T10:33:42.596Z,47.30
2023-02-23T10:34:48.340Z,47.30
2023-02-23T10:36:07.402Z,47.60
2023-02-23T10:37:16.890Z,47.70
2023-02-23T10:38:19.907Z,47.50
2023-02-23T10:39:23.208Z,47.50
2023-02-23T10:40:28.811Z,47.50
2023-02-23T10:41:31.619Z,47.40
2023-02-23T10:42:34.435Z,47.30
2023-02-23T10:43:36.973Z,47.40
2023-02-23T10:44:39.720Z,47.50
2023-02-23T10:45:48.601Z,47.70
2023-02-23T10:47:13.632Z,47.60
2023-02-23T10:48:43.500Z,47.30
2023-02-23T10:49:51.612Z,47.60
2023-02-23T10:51:02.713Z,47.60
2023-02-23T10:52:07.529Z,47.70
2023-02-23T10:53:27.909Z,47.70
2023-02-23T10:54:44.778Z,47.60
2023-02-23T10:56:00.177Z,47.80
2023-02-23T10:57:04.518Z,47.50
2023-02-23T10:58:19.396Z,47.50
2023-02-23T10:59:22.601Z,47.40
2023-02-23T11:00:32.700Z,47.10
2023-02-23T11:02:00.779Z,47.00
2023-02-23T11:03:19.059Z,47.00
2023-02-23T11:04:30.591Z,47.00
2023-02-23T11:05:32.888Z,46.60
2023-02-23T11:06:40.120Z,46.70
2023-02-23T11:07:43.254Z,47.00
2023-02-23T11:08:46.023Z,47.00
2023-02-23T11:09:49.639Z,46.90
2023-02-23T11:11:19.420Z,46.80
2023-02-23T11:12:49.943Z,47.20
2023-02-23T11:13:52.879Z,47.60
2023-02-23T11:14:57.442Z,47.70
2023-02-23T11:16:03.099Z,47.80
2023-02-23T11:17:05.553Z,47.80
2023-02-23T11:18:19.783Z,47.90
2023-02-23T11:19:37.191Z,47.90
2023-02-23T11:20:41.754Z,48.00
2023-02-23T11:21:52.478Z,48.00
2023-02-23T11:22:58.965Z,48.00
2023-02-23T11:24:42.991Z,47.80
2023-02-23T11:25:49.432Z,48.40
2023-02-23T11:26:55.021Z,48.10
2023-02-23T11:27:58.777Z,47.90
2023-02-23T11:29:10.900Z,47.60
2023-02-23T11:30:13.700Z,47.70
2023-02-23T11:31:20.421Z,47.80
2023-02-23T11:32:33.384Z,47.90
2023-02-23T11:33:38.933Z,48.10
2023-02-23T11:34:43.235Z,48.10
2023-02-23T11:35:46.629Z,48.10
2023-02-23T11:37:03.098Z,48.10
2023-02-23T11:38:22.376Z,47.90
2023-02-23T11:39:24.817Z,48.10
2023-02-23T11:40:32.530Z,48.40
2023-02-23T11:41:37.151Z,48.10
2023-02-23T11:42:55.434Z,48.00
2023-02-23T11:43:59.450Z,48.40
2023-02-23T11:45:05.510Z,48.10
2023-02-23T11:46:09.215Z,47.90
2023-02-23T11:47:21.616Z,48.20
2023-02-23T11:48:28.705Z,47.80
2023-02-23T11:49:35.854Z,48.10
2023-02-23T11:50:38.440Z,48.40
2023-02-23T11:51:49.099Z,48.60
2023-02-23T11:53:06.485Z,48.50
2023-02-23T11:54:27.390Z,48.70
2023-02-23T11:55:32.217Z,48.50
2023-02-23T11:56:35.791Z,48.10
2023-02-23T11:57:38.134Z,48.40
2023-02-23T11:58:49.848Z,48.20
2023-02-23T11:59:52.901Z,48.50
2023-02-23T12:01:13.584Z,48.60
2023-02-23T12:02:25.423Z,48.60
2023-02-23T12:03:30.873Z,49.00
2023-02-23T12:04:38.967Z,48.90
2023-02-23T12:05:41.388Z,49.00
2023-02-23T12:06:43.809Z,49.20
2023-02-23T12:08:06.797Z,49.00
2023-02-23T12:09:26.978Z,48.80
2023-02-23T12:10:47.994Z,48.90
2023-02-23T12:12:04.912Z,48.90
2023-02-23T12:13:25.228Z,49.10
2023-02-23T12:15:07.551Z,49.00
2023-02-23T12:16:23.390Z,48.60
2023-02-23T12:17:29.453Z,48.30
2023-02-23T12:19:19.938Z,48.50
2023-02-23T12:20:26.937Z,47.90
2023-02-23T12:21:44.140Z,48.30
2023-02-23T12:22:52.466Z,47.90
2023-02-23T12:24:12.608Z,47.90
2023-02-23T12:25:26.880Z,48.20
2023-02-23T12:26:34.010Z,48.00
2023-02-23T12:28:18.086Z,48.10
2023-02-23T12:29:48.410Z,48.40
2023-02-23T12:30:54.740Z,47.70
2023-02-23T12:32:12.676Z,47.90
2023-02-23T12:33:20.696Z,48.20
2023-02-23T12:34:46.438Z,48.50
2023-02-23T12:35:57.277Z,48.50
2023-02-23T12:37:07.488Z,48.80
2023-02-23T12:38:41.251Z,48.80
2023-02-23T12:39:48.099Z,48.90
2023-02-23T12:40:51.690Z,48.50
2023-02-23T12:42:29.898Z,48.20
2023-02-23T12:43:51.389Z,48.60
2023-02-23T12:45:02.828Z,48.80
2023-02-23T12:46:14.561Z,49.20
2023-02-23T12:47:32.890Z,48.70
2023-02-23T12:48:57.474Z,49.10
2023-02-23T12:50:11.174Z,49.40
2023-02-23T12:51:41.124Z,49.50
2023-02-23T12:52:53.645Z,49.70
2023-02-23T12:53:56.026Z,49.80
2023-02-23T12:54:58.445Z,49.80
2023-02-23T12:56:04.298Z,49.40
2023-02-23T12:57:19.424Z,49.00
2023-02-23T12:58:49.346Z,48.50
2023-02-23T12:59:51.700Z,48.30
2023-02-23T13:01:05.965Z,48.00
2023-02-23T13:02:16.366Z,47.80
2023-02-23T13:03:46.054Z,47.60
2023-02-23T13:05:12.952Z,47.40
2023-02-23T13:06:39.816Z,47.30
2023-02-23T13:07:42.312Z,47.20
2023-02-23T13:09:05.987Z,47.00
2023-02-23T13:10:31.962Z,47.00
2023-02-23T13:12:08.376Z,46.90
2023-02-23T13:13:20.737Z,46.80
2023-02-23T13:14:49.524Z,46.70
2023-02-23T13:16:17.037Z,46.70
2023-02-23T13:17:49.529Z,46.70
2023-02-23T13:19:26.067Z,46.60
2023-02-23T13:21:09.684Z,46.60
2023-02-23T13:22:36.489Z,46.50
2023-02-23T13:23:56.203Z,46.50
2023-02-23T13:25:04.932Z,46.50
2023-02-23T13:26:28.611Z,46.50
2023-02-23T13:27:36.630Z,46.50
2023-02-23T13:29:19.799Z,46.50
2023-02-23T13:30:22.610Z,46.40
2023-02-23T13:31:46.333Z,46.40
2023-02-23T13:32:49.337Z,46.50
2023-02-23T13:33:54.419Z,46.50
2023-02-23T13:35:00.672Z,46.60
2023-02-23T13:36:04.389Z,46.60
2023-02-23T13:37:08.244Z,46.40
2023-02-23T13:38:44.258Z,46.40
2023-02-23T13:40:02.585Z,46.30
2023-02-23T13:41:52.521Z,46.40
2023-02-23T13:43:52.197Z,46.40
2023-02-23T13:44:54.852Z,46.40
2023-02-23T13:46:16.439Z,46.80
2023-02-23T13:47:30.981Z,46.40
2023-02-23T13:48:58.860Z,46.40
2023-02-23T13:50:26.021Z,46.40
2023-02-23T13:51:33.341Z,46.40
2023-02-23T13:52:39.873Z,46.40
2023-02-23T13:53:42.318Z,46.10
2023-02-23T13:55:06.409Z,46.20
2023-02-23T13:56:18.363Z,46.00
2023-02-23T13:57:23.375Z,46.50
2023-02-23T13:58:31.006Z,45.90
2023-02-23T13:59:45.486Z,46.10
2023-02-23T14:01:04.193Z,46.00
2023-02-23T14:02:26.874Z,46.10
2023-02-23T14:03:30.600Z,46.20
2023-02-23T14:04:41.970Z,46.10
2023-02-23T14:05:45.020Z,46.10
2023-02-23T14:06:56.750Z,46.50
2023-02-23T14:08:05.229Z,46.20
2023-02-23T14:09:18.206Z,46.10
2023-02-23T14:10:24.263Z,46.70
2023-02-23T14:11:44.209Z,46.20
2023-02-23T14:13:07.846Z,46.10
2023-02-23T14:14:16.912Z,46.00
2023-02-23T14:15:25.331Z,46.10
2023-02-23T14:16:27.862Z,46.00
2023-02-23T14:17:36.474Z,46.10
2023-02-23T14:18:55.537Z,46.10
2023-02-23T14:20:13.393Z,46.10
2023-02-23T14:21:30.398Z,46.10
2023-02-23T14:22:34.703Z,46.50
2023-02-23T14:23:53.774Z,46.20
2023-02-23T14:25:33.979Z,46.30
2023-02-23T14:26:39.246Z,46.10
2023-02-23T14:27:45.915Z,46.30
2023-02-23T14:29:27.522Z,46.40
2023-02-23T14:30:43.542Z,46.10
2023-02-23T14:31:58.222Z,46.20
2023-02-23T14:33:21.194Z,47.00
2023-02-23T14:34:42.134Z,46.70
2023-02-23T14:35:47.816Z,45.90
2023-02-23T14:36:56.368Z,46.00
2023-02-23T14:38:01.985Z,46.30
2023-02-23T14:39:07.899Z,46.50
2023-02-23T14:40:22.426Z,46.30
2023-02-23T14:41:50.079Z,46.50
2023-02-23T14:42:56.804Z,46.50
2023-02-23T14:44:28.945Z,46.40
2023-02-23T14:45:38.329Z,46.50
2023-02-23T14:47:02.730Z,46.60
2023-02-23T14:48:19.437Z,46.70
2023-02-23T14:49:25.324Z,46.60
2023-02-23T14:50:34.097Z,46.60
2023-02-23T14:51:41.964Z,46.90
2023-02-23T14:52:44.356Z,46.60
2023-02-23T14:53:47.017Z,46.60
2023-02-23T14:54:50.699Z,46.70
2023-02-23T14:55:53.170Z,47.50
2023-02-23T14:56:59.166Z,46.60